createdAt,value
2023-10-13T00:02:12.181Z,16.40
2023-10-13T00:04:41.400Z,16.40
2023-10-13T00:07:11.025Z,16.40
2023-10-13T00:09:41.606Z,16.40
2023-10-13T00:12:15.068Z,16.40
2023-10-13T00:14:47.043Z,16.40
2023-10-13T00:17:22.073Z,16.40
2023-10-13T00:19:54.157Z,16.40
2023-10-13T00:22:24.452Z,16.40
2023-10-13T00:25:00.388Z,16.30
2023-10-13T00:27:33.529Z,16.40
2023-10-13T00:30:23.568Z,16.30
2023-10-13T00:32:57.363Z,16.30
2023-10-13T00:35:30.764Z,16.30
2023-10-13T00:38:05.363Z,16.20
2023-10-13T00:40:53.493Z,16.20
2023-10-13T00:43:35.804Z,16.20
2023-10-13T00:46:14.543Z,16.10
2023-10-13T00:48:44.816Z,16.10
2023-10-13T00:51:33.259Z,16.10
2023-10-13T00:54:09.385Z,16.10
2023-10-13T00:56:48.188Z,16.00
2023-10-13T00:59:16.733Z,16.00
2023-10-13T01:01:45.745Z,16.00
2023-10-13T01:04:14.600Z,16.00
2023-10-13T01:06:43.637Z,16.00
2023-10-13T01:09:14.071Z,15.90
2023-10-13T01:11:46.298Z,15.90
2023-10-13T01:14:16.409Z,16.00
2023-10-13T01:16:46.250Z,16.00
2023-10-13T01:19:15.561Z,16.00
2023-10-13T01:21:46.082Z,15.90
2023-10-13T01:24:20.047Z,15.90
2023-10-13T01:26:52.661Z,15.90
2023-10-13T01:29:20.946Z,15.80
2023-10-13T01:31:50.037Z,15.80
2023-10-13T01:34:23.673Z,15.80
2023-10-13T01:36:54.427Z,15.80
2023-10-13T01:39:28.187Z,15.80
2023-10-13T01:41:57.409Z,15.80
2023-10-13T01:44:29.482Z,15.90
2023-10-13T01:46:57.302Z,15.80
2023-10-13T01:49:26.107Z,15.80
2023-10-13T01:51:53.989Z,15.80
2023-10-13T01:54:24.218Z,15.90
2023-10-13T01:56:51.929Z,15.90
2023-10-13T01:59:20.916Z,15.80
2023-10-13T02:01:48.832Z,15.90
2023-10-13T02:04:22.840Z,15.90
2023-10-13T02:06:50.689Z,15.90
2023-10-13T02:09:27.078Z,15.90
2023-10-13T02:11:56.304Z,15.80
2023-10-13T02:14:27.211Z,15.80
2023-10-13T02:17:14.060Z,15.70
2023-10-13T02:19:46.598Z,15.60
2023-10-13T02:22:30.284Z,15.50
2023-10-13T02:25:03.356Z,15.50
2023-10-13T02:27:42.053Z,15.50
2023-10-13T02:30:16.216Z,15.50
2023-10-13T02:32:45.460Z,15.50
2023-10-13T02:35:17.169Z,15.60
2023-10-13T02:37:45.482Z,15.70
2023-10-13T02:40:15.021Z,15.70
2023-10-13T02:42:44.256Z,15.80
2023-10-13T02:45:13.933Z,15.80
2023-10-13T02:47:44.806Z,15.70
2023-10-13T02:50:14.536Z,15.70
2023-10-13T02:52:43.089Z,15.70
2023-10-13T02:55:16.189Z,15.70
2023-10-13T02:57:46.480Z,15.60
2023-10-13T03:00:17.013Z,15.70
2023-10-13T03:02:57.185Z,15.60
2023-10-13T03:05:24.986Z,15.60
2023-10-13T03:07:53.811Z,15.60
2023-10-13T03:10:22.723Z,15.50
2023-10-13T03:12:52.935Z,15.50
2023-10-13T03:15:22.540Z,15.50
2023-10-13T03:17:51.489Z,15.50
2023-10-13T03:20:23.767Z,15.40
2023-10-13T03:22:55.699Z,15.40
2023-10-13T03:25:25.816Z,15.40
2023-10-13T03:28:06.887Z,15.40
2023-10-13T03:30:42.837Z,15.40
2023-10-13T03:33:15.681Z,15.40
2023-10-13T03:35:46.786Z,15.30
2023-10-13T03:38:19.546Z,15.30
2023-10-13T03:40:57.752Z,15.30
2023-10-13T03:43:31.207Z,15.20
2023-10-13T03:46:09.617Z,15.10
2023-10-13T03:48:53.695Z,15.10
2023-10-13T03:51:22.703Z,15.10
2023-10-13T03:53:55.663Z,15.10
2023-10-13T03:56:32.503Z,15.10
2023-10-13T03:59:07.512Z,15.00
2023-10-13T04:01:47.046Z,15.00
2023-10-13T04:04:35.889Z,14.90
2023-10-13T04:07:28.630Z,14.90
2023-10-13T04:10:11.342Z,14.90
2023-10-13T04:12:56.657Z,15.00
2023-10-13T04:15:38.409Z,14.90
2023-10-13T04:18:20.042Z,15.00
2023-10-13T04:21:09.291Z,15.00
2023-10-13T04:23:59.884Z,15.10
2023-10-13T04:26:38.273Z,15.20
2023-10-13T04:29:12.091Z,15.20
2023-10-13T04:32:00.781Z,15.20
2023-10-13T04:34:39.599Z,15.20
2023-10-13T04:37:30.336Z,15.20
2023-10-13T04:40:01.358Z,15.20
2023-10-13T04:42:51.173Z,15.30
2023-10-13T04:45:40.322Z,15.30
2023-10-13T04:48:19.166Z,15.30
2023-10-13T04:50:51.608Z,15.40
2023-10-13T04:53:34.446Z,15.40
2023-10-13T04:56:17.439Z,15.40
2023-10-13T04:59:02.706Z,15.50
2023-10-13T05:01:48.855Z,15.50
2023-10-13T05:04:40.146Z,15.60
2023-10-13T05:07:26.379Z,15.60
2023-10-13T05:10:12.605Z,15.60
2023-10-13T05:13:02.480Z,15.60
2023-10-13T05:15:48.872Z,15.50
2023-10-13T05:18:35.157Z,15.50
2023-10-13T05:21:22.621Z,15.60
2023-10-13T05:24:08.977Z,15.70
2023-10-13T05:26:55.196Z,15.80
2023-10-13T05:29:41.391Z,16.00
2023-10-13T05:32:27.705Z,16.00
2023-10-13T05:35:14.115Z,16.10
2023-10-13T05:38:01.636Z,16.10
2023-10-13T05:40:47.779Z,16.10
2023-10-13T05:43:34.070Z,16.20
2023-10-13T05:46:18.879Z,16.20
2023-10-13T05:49:01.424Z,16.30
2023-10-13T05:51:48.782Z,16.20
2023-10-13T05:54:36.572Z,16.30
2023-10-13T05:57:22.928Z,16.30
2023-10-13T06:00:08.971Z,16.30
2023-10-13T06:02:56.605Z,16.40
2023-10-13T06:05:42.703Z,16.50
2023-10-13T06:08:34.291Z,16.60
2023-10-13T06:11:24.650Z,16.70
2023-10-13T06:14:11.055Z,16.70
2023-10-13T06:16:57.560Z,16.70
2023-10-13T06:19:43.987Z,16.70
2023-10-13T06:22:30.240Z,16.80
2023-10-13T06:25:16.419Z,16.80
2023-10-13T06:28:12.247Z,16.70
2023-10-13T06:30:41.761Z,16.60
2023-10-13T06:33:12.637Z,16.40
2023-10-13T06:35:42.645Z,16.40
2023-10-13T06:38:21.939Z,16.20
2023-10-13T06:40:52.173Z,16.20
2023-10-13T06:43:27.076Z,16.20
2023-10-13T06:46:02.087Z,16.30
2023-10-13T06:48:34.624Z,16.50
2023-10-13T06:51:07.817Z,16.60
2023-10-13T06:53:38.769Z,16.60
2023-10-13T06:56:10.692Z,16.70
2023-10-13T06:58:44.426Z,16.90
2023-10-13T07:01:16.598Z,16.90
2023-10-13T07:03:50.833Z,17.10
2023-10-13T07:06:21.304Z,17.20
2023-10-13T07:08:53.360Z,17.40
2023-10-13T07:11:35.832Z,17.80
2023-10-13T07:14:12.741Z,18.50
2023-10-13T07:16:48.176Z,19.20
2023-10-13T07:19:20.640Z,20.00
2023-10-13T07:21:59.808Z,20.90
2023-10-13T07:24:34.825Z,22.00
2023-10-13T07:27:07.442Z,22.90
2023-10-13T07:29:37.613Z,23.60
2023-10-13T07:32:14.100Z,24.20
2023-10-13T07:34:43.143Z,25.00
2023-10-13T07:37:14.337Z,26.20
2023-10-13T07:39:44.184Z,26.60
2023-10-13T07:42:21.050Z,26.40
2023-10-13T07:44:51.294Z,27.00
2023-10-13T07:47:21.766Z,27.60
2023-10-13T07:49:52.476Z,27.80
2023-10-13T07:52:37.849Z,27.50
2023-10-13T07:55:21.963Z,27.70
2023-10-13T07:57:56.926Z,27.60
2023-10-13T08:00:30.776Z,27.90
2023-10-13T08:03:11.004Z,28.00
2023-10-13T08:05:57.446Z,28.50
2023-10-13T08:08:27.841Z,29.40
2023-10-13T08:11:09.821Z,30.10
2023-10-13T08:13:48.085Z,30.50
2023-10-13T08:16:31.996Z,30.40
2023-10-13T08:19:03.135Z,30.20
2023-10-13T08:21:34.561Z,30.50
2023-10-13T08:24:08.502Z,30.90
2023-10-13T08:26:54.923Z,30.70
2023-10-13T08:29:46.336Z,30.90
2023-10-13T08:32:24.080Z,31.20
2023-10-13T08:35:10.080Z,30.90
2023-10-13T08:38:08.453Z,31.20
2023-10-13T08:41:02.679Z,32.00
2023-10-13T08:43:45.153Z,32.20
2023-10-13T08:46:30.317Z,32.00
2023-10-13T08:49:11.060Z,31.90
2023-10-13T08:51:46.744Z,31.10
2023-10-13T08:54:36.041Z,30.90
2023-10-13T08:57:22.145Z,30.60
2023-10-13T08:59:56.817Z,30.10
2023-10-13T09:02:50.960Z,30.20
2023-10-13T09:05:35.524Z,30.40
2023-10-13T09:08:11.159Z,29.70
2023-10-13T09:10:46.406Z,29.10
2023-10-13T09:13:22.246Z,28.20
2023-10-13T09:16:02.664Z,28.10
2023-10-13T09:18:48.097Z,27.80
2023-10-13T09:21:45.198Z,28.40
2023-10-13T09:24:32.481Z,28.60
2023-10-13T09:27:06.738Z,28.00
2023-10-13T09:29:40.339Z,28.40
2023-10-13T09:32:13.753Z,28.30
2023-10-13T09:34:45.891Z,28.40
2023-10-13T09:37:22.457Z,27.90
2023-10-13T09:39:56.005Z,27.40
2023-10-13T09:42:25.333Z,26.60
2023-10-13T09:44:57.105Z,26.00
2023-10-13T09:47:39.045Z,25.30
2023-10-13T09:50:25.667Z,25.20
2023-10-13T09:53:00.145Z,25.30
2023-10-13T09:55:33.483Z,25.10
2023-10-13T09:58:12.129Z,25.00
2023-10-13T10:00:57.845Z,24.70
2023-10-13T10:03:32.211Z,24.90
2023-10-13T10:06:07.872Z,25.40
2023-10-13T10:08:41.758Z,26.60
2023-10-13T10:11:46.835Z,28.30
2023-10-13T10:14:21.650Z,28.50
2023-10-13T10:17:09.738Z,27.50
2023-10-13T10:19:49.947Z,27.10
2023-10-13T10:22:35.082Z,26.70
2023-10-13T10:25:23.466Z,26.50
2023-10-13T10:27:59.354Z,26.00
2023-10-13T10:30:29.024Z,25.80
2023-10-13T10:33:01.237Z,26.60
2023-10-13T10:35:31.296Z,27.60
2023-10-13T10:38:12.893Z,28.90
2023-10-13T10:40:58.500Z,29.40
2023-10-13T10:43:34.220Z,30.30
2023-10-13T10:46:16.537Z,30.00
2023-10-13T10:48:47.443Z,30.50
2023-10-13T10:51:22.759Z,30.90
2023-10-13T10:54:04.556Z,31.10
2023-10-13T10:56:38.917Z,30.90
2023-10-13T10:59:13.185Z,30.50
2023-10-13T11:01:52.575Z,31.30
2023-10-13T11:04:26.414Z,31.60
2023-10-13T11:06:57.114Z,31.80
2023-10-13T11:09:39.545Z,31.40
2023-10-13T11:12:18.001Z,31.00
2023-10-13T11:14:51.788Z,30.50
2023-10-13T11:17:28.146Z,29.60
2023-10-13T11:19:57.798Z,28.80
2023-10-13T11:22:34.635Z,28.50
2023-10-13T11:25:10.860Z,27.80
2023-10-13T11:27:57.510Z,27.20
2023-10-13T11:30:31.316Z,27.40
2023-10-13T11:33:01.888Z,27.90
2023-10-13T11:35:58.243Z,27.90
2023-10-13T11:38:30.285Z,27.40
2023-10-13T11:41:16.352Z,27.30
2023-10-13T11:44:10.785Z,26.80
2023-10-13T11:47:05.642Z,26.10
2023-10-13T11:49:38.506Z,25.40
2023-10-13T11:52:19.642Z,25.50
2023-10-13T11:54:49.426Z,25.80
2023-10-13T11:57:21.473Z,25.70
2023-10-13T12:00:20.729Z,25.40
2023-10-13T12:03:15.351Z,26.00
2023-10-13T12:06:07.588Z,26.30
2023-10-13T12:08:40.095Z,26.20
2023-10-13T12:11:23.729Z,26.30
2023-10-13T12:13:52.553Z,26.40
2023-10-13T12:16:23.763Z,25.50
2023-10-13T12:18:54.844Z,25.00
2023-10-13T12:21:23.766Z,24.70
2023-10-13T12:23:55.256Z,24.20
2023-10-13T12:26:33.834Z,23.90
2023-10-13T12:29:08.357Z,23.90
2023-10-13T12:31:40.803Z,23.90
2023-10-13T12:34:20.249Z,23.60
2023-10-13T12:37:07.162Z,23.50
2023-10-13T12:40:08.151Z,23.50
2023-10-13T12:42:53.646Z,23.20
2023-10-13T12:45:45.022Z,22.80
2023-10-13T12:48:32.506Z,22.70
2023-10-13T12:51:21.540Z,22.70
2023-10-13T12:53:50.601Z,22.40
2023-10-13T12:56:27.297Z,22.40
2023-10-13T12:58:56.819Z,22.50
2023-10-13T13:01:34.464Z,22.40
2023-10-13T13:04:06.513Z,22.40
2023-10-13T13:06:35.182Z,22.50
2023-10-13T13:09:04.054Z,22.50
2023-10-13T13:11:33.019Z,22.50
2023-10-13T13:14:01.890Z,22.60
2023-10-13T13:16:32.146Z,22.40
2023-10-13T13:19:03.243Z,22.20
2023-10-13T13:21:33.203Z,22.00
2023-10-13T13:24:04.342Z,22.00
2023-10-13T13:26:33.538Z,21.90
2023-10-13T13:29:02.398Z,22.00
2023-10-13T13:31:31.747Z,21.90
2023-10-13T13:34:00.558Z,21.80
2023-10-13T13:36:29.326Z,21.80
2023-10-13T13:39:01.669Z,21.80
2023-10-13T13:41:34.156Z,22.00
2023-10-13T13:44:14.762Z,22.10
2023-10-13T13:46:44.390Z,22.30
2023-10-13T13:49:21.084Z,22.20
2023-10-13T13:51:53.075Z,22.20
2023-10-13T13:54:24.083Z,22.30
2023-10-13T13:56:52.959Z,22.40
2023-10-13T13:59:22.206Z,22.50
2023-10-13T14:01:54.496Z,22.40
2023-10-13T14:04:23.883Z,22.70
2023-10-13T14:06:53.315Z,22.90
2023-10-13T14:09:41.852Z,22.90
2023-10-13T14:12:24.635Z,22.80
2023-10-13T14:14:57.343Z,22.60
2023-10-13T14:17:30.572Z,22.60
2023-10-13T14:20:00.769Z,22.70
2023-10-13T14:22:29.743Z,22.70
2023-10-13T14:25:05.598Z,22.50
2023-10-13T14:27:34.727Z,22.40
2023-10-13T14:30:04.195Z,22.50
2023-10-13T14:32:33.296Z,22.40
2023-10-13T14:35:12.604Z,22.30
2023-10-13T14:37:41.591Z,22.30
2023-10-13T14:40:16.176Z,22.30
2023-10-13T14:42:45.018Z,22.20
2023-10-13T14:45:14.883Z,22.00
2023-10-13T14:47:43.880Z,22.00
2023-10-13T14:50:21.303Z,22.00
2023-10-13T14:52:51.169Z,21.80
2023-10-13T14:55:23.030Z,21.90
2023-10-13T14:57:52.921Z,22.00
2023-10-13T15:00:27.262Z,22.10
2023-10-13T15:02:56.512Z,21.90
2023-10-13T15:05:26.302Z,21.90
2023-10-13T15:07:55.265Z,21.90
2023-10-13T15:10:28.167Z,21.80
2023-10-13T15:12:56.854Z,21.80
2023-10-13T15:15:25.840Z,21.90
2023-10-13T15:17:55.094Z,21.80
2023-10-13T15:20:24.579Z,21.90
2023-10-13T15:23:01.941Z,21.80
2023-10-13T15:25:40.640Z,21.90
2023-10-13T15:28:11.285Z,21.80
2023-10-13T15:30:53.789Z,21.70
2023-10-13T15:33:22.683Z,21.60
2023-10-13T15:35:52.974Z,21.60
2023-10-13T15:38:23.761Z,21.50
2023-10-13T15:40:56.630Z,21.50
2023-10-13T15:43:25.565Z,21.40
2023-10-13T15:45:54.672Z,21.40
2023-10-13T15:48:25.606Z,21.30
2023-10-13T15:50:55.332Z,21.30
2023-10-13T15:53:26.849Z,21.20
2023-10-13T15:55:57.813Z,21.30
2023-10-13T15:58:27.410Z,21.20
2023-10-13T16:00:57.621Z,21.10
2023-10-13T16:03:29.052Z,20.90
2023-10-13T16:05:57.856Z,20.90
2023-10-13T16:08:26.694Z,20.90
2023-10-13T16:11:08.545Z,20.80
2023-10-13T16:13:38.548Z,20.80
2023-10-13T16:16:07.891Z,20.80
2023-10-13T16:18:37.019Z,20.80
2023-10-13T16:21:19.774Z,20.70
2023-10-13T16:24:01.276Z,20.50
2023-10-13T16:26:32.295Z,20.40
2023-10-13T16:29:01.269Z,20.30
2023-10-13T16:31:30.157Z,20.20
2023-10-13T16:34:00.497Z,20.10
2023-10-13T16:36:29.593Z,20.00
2023-10-13T16:38:59.440Z,20.00
2023-10-13T16:41:29.836Z,19.90
2023-10-13T16:44:02.436Z,19.80
2023-10-13T16:46:33.647Z,19.80
2023-10-13T16:49:03.767Z,19.80
2023-10-13T16:51:32.551Z,19.80
2023-10-13T16:54:01.475Z,19.80
2023-10-13T16:56:30.419Z,19.70
2023-10-13T16:59:01.995Z,19.60
2023-10-13T17:01:31.153Z,19.60
2023-10-13T17:04:00.289Z,19.70
2023-10-13T17:06:29.612Z,19.70
2023-10-13T17:08:58.679Z,19.60
2023-10-13T17:11:27.626Z,19.60
2023-10-13T17:13:57.928Z,19.60
2023-10-13T17:16:28.307Z,19.60
2023-10-13T17:18:57.527Z,19.70
2023-10-13T17:21:29.670Z,19.70
2023-10-13T17:24:02.902Z,19.70
2023-10-13T17:26:32.286Z,19.70
2023-10-13T17:29:04.221Z,19.60
2023-10-13T17:31:34.810Z,19.60
2023-10-13T17:34:04.189Z,19.60
2023-10-13T17:36:33.379Z,19.60
2023-10-13T17:39:02.737Z,19.60
2023-10-13T17:41:33.993Z,19.60
2023-10-13T17:44:03.907Z,19.60
2023-10-13T17:46:34.263Z,19.50
2023-10-13T17:49:03.608Z,19.60
2023-10-13T17:51:32.636Z,19.60
2023-10-13T17:54:01.725Z,19.60
2023-10-13T17:56:32.245Z,19.70
2023-10-13T17:59:01.283Z,19.70
2023-10-13T18:01:33.316Z,19.70
2023-10-13T18:04:13.926Z,19.70
2023-10-13T18:06:46.505Z,19.70
2023-10-13T18:09:18.411Z,19.60
2023-10-13T18:11:48.265Z,19.50
2023-10-13T18:14:19.446Z,19.50
2023-10-13T18:16:51.109Z,19.40
2023-10-13T18:19:22.394Z,19.30
2023-10-13T18:21:51.565Z,19.30
2023-10-13T18:24:20.799Z,19.20
2023-10-13T18:26:54.812Z,19.10
2023-10-13T18:29:24.457Z,19.10
2023-10-13T18:31:54.184Z,19.00
2023-10-13T18:34:26.336Z,19.00
2023-10-13T18:36:56.461Z,18.90
2023-10-13T18:39:34.385Z,18.90
2023-10-13T18:42:07.069Z,18.80
2023-10-13T18:44:38.234Z,18.80
2023-10-13T18:47:09.984Z,18.80
2023-10-13T18:49:42.298Z,18.80
2023-10-13T18:52:12.396Z,18.80
2023-10-13T18:54:42.569Z,18.90
2023-10-13T18:57:15.967Z,18.90
2023-10-13T18:59:46.128Z,18.90
2023-10-13T19:02:17.462Z,18.90
2023-10-13T19:04:49.504Z,18.90
2023-10-13T19:07:20.287Z,19.00
2023-10-13T19:09:51.893Z,19.00
2023-10-13T19:12:24.645Z,19.00
2023-10-13T19:14:56.961Z,19.10
2023-10-13T19:17:29.098Z,19.00
2023-10-13T19:20:05.476Z,19.00
2023-10-13T19:22:35.962Z,19.00
2023-10-13T19:25:12.336Z,19.10
2023-10-13T19:27:42.242Z,19.10
2023-10-13T19:30:15.816Z,19.20
2023-10-13T19:32:48.041Z,19.20
2023-10-13T19:35:23.169Z,19.20
2023-10-13T19:37:54.111Z,19.30
2023-10-13T19:40:25.225Z,19.40
2023-10-13T19:42:56.271Z,19.40
2023-10-13T19:45:29.331Z,19.50
2023-10-13T19:47:59.671Z,19.50
2023-10-13T19:50:41.801Z,19.60
2023-10-13T19:53:16.770Z,19.70
2023-10-13T19:55:49.556Z,19.70
2023-10-13T19:58:24.808Z,19.70
2023-10-13T20:00:57.146Z,19.80
2023-10-13T20:03:27.473Z,19.90
2023-10-13T20:06:00.494Z,19.90
2023-10-13T20:08:30.609Z,20.00
2023-10-13T20:11:00.974Z,20.00
2023-10-13T20:13:30.121Z,20.10
2023-10-13T20:15:59.682Z,20.10
2023-10-13T20:18:32.410Z,20.10
2023-10-13T20:21:05.832Z,20.00
2023-10-13T20:23:37.481Z,20.00
2023-10-13T20:26:11.144Z,20.00
2023-10-13T20:28:41.472Z,19.90
2023-10-13T20:31:12.288Z,19.90
2023-10-13T20:33:44.870Z,19.90
2023-10-13T20:36:19.521Z,19.80
2023-10-13T20:38:51.949Z,19.90
2023-10-13T20:41:21.363Z,19.90
2023-10-13T20:43:50.980Z,19.90
2023-10-13T20:46:21.300Z,19.80
2023-10-13T20:48:50.379Z,19.80
2023-10-13T20:51:22.437Z,19.90
2023-10-13T20:53:58.842Z,19.90
2023-10-13T20:56:29.126Z,19.90
2023-10-13T20:59:01.500Z,19.90
2023-10-13T21:01:34.825Z,19.90
2023-10-13T21:04:04.947Z,19.80
2023-10-13T21:06:37.987Z,19.70
2023-10-13T21:09:21.683Z,19.80
2023-10-13T21:11:52.524Z,19.70
2023-10-13T21:14:25.278Z,19.60
2023-10-13T21:16:54.741Z,19.50
2023-10-13T21:19:24.573Z,19.50
2023-10-13T21:21:55.479Z,19.50
2023-10-13T21:24:25.497Z,19.50
2023-10-13T21:26:54.217Z,19.60
2023-10-13T21:29:23.340Z,19.60
2023-10-13T21:31:54.284Z,19.60
2023-10-13T21:34:25.156Z,19.70
2023-10-13T21:36:56.493Z,19.70
2023-10-13T21:39:37.434Z,19.70
2023-10-13T21:42:12.692Z,19.70
2023-10-13T21:44:41.507Z,19.70
2023-10-13T21:47:10.344Z,19.70
2023-10-13T21:49:39.219Z,19.80
2023-10-13T21:52:10.353Z,20.00
2023-10-13T21:54:39.300Z,20.10
2023-10-13T21:57:08.945Z,20.10
2023-10-13T21:59:37.785Z,20.30
2023-10-13T22:02:06.472Z,20.40
2023-10-13T22:04:35.767Z,20.50
2023-10-13T22:07:04.777Z,20.50
2023-10-13T22:09:37.660Z,20.50
2023-10-13T22:12:07.689Z,20.60
2023-10-13T22:14:36.610Z,20.60
2023-10-13T22:17:05.886Z,20.60
2023-10-13T22:19:34.767Z,20.70
2023-10-13T22:22:03.663Z,20.70
2023-10-13T22:24:34.948Z,20.70
2023-10-13T22:27:07.731Z,20.60
2023-10-13T22:29:36.479Z,20.60
2023-10-13T22:32:07.249Z,20.50
2023-10-13T22:34:36.005Z,20.50
2023-10-13T22:37:06.411Z,20.60
2023-10-13T22:39:35.662Z,20.60
2023-10-13T22:42:06.635Z,20.60
2023-10-13T22:44:35.496Z,20.60
2023-10-13T22:47:05.062Z,20.60
2023-10-13T22:49:34.705Z,20.60
2023-10-13T22:52:04.544Z,20.60
2023-10-13T22:54:38.385Z,20.60
2023-10-13T22:57:09.561Z,20.50
2023-10-13T22:59:38.468Z,20.50
2023-10-13T23:02:15.712Z,20.50
2023-10-13T23:04:52.460Z,20.40
2023-10-13T23:07:23.329Z,20.30
2023-10-13T23:09:52.876Z,20.50
2023-10-13T23:12:27.382Z,20.70
2023-10-13T23:14:56.311Z,20.80
2023-10-13T23:17:26.389Z,20.90
2023-10-13T23:19:55.258Z,20.90
2023-10-13T23:22:25.994Z,21.00
2023-10-13T23:24:54.764Z,21.00
2023-10-13T23:27:25.082Z,21.00
2023-10-13T23:29:54.130Z,21.00
2023-10-13T23:32:22.890Z,20.90
2023-10-13T23:34:51.717Z,20.90
2023-10-13T23:37:20.648Z,20.90
2023-10-13T23:39:49.665Z,20.80
2023-10-13T23:42:25.209Z,20.70
2023-10-13T23:45:07.838Z,20.70
2023-10-13T23:47:48.484Z,20.70
2023-10-13T23:50:22.731Z,20.60
2023-10-13T23:52:57.116Z,20.50
2023-10-13T23:55:33.009Z,20.50
2023-10-13T23:58:06.529Z,20.40
